Time,TemperatureF,DewpointF,PressureIn,WindDirection,WindDirectionDegrees,WindSpeedMPH,WindSpeedGustMPH,Humidity,HourlyPrecipIn,Conditions,Clouds,dailyrainin,SoftwareType,DateUTC
2013-08-31 00:01:00,73.9,73.3,29.71,SW,225,2.7,-999.0,98,-99.99,,,0.00,Acu-Link.com,2013-08-31 04:01:00,
2013-08-31 00:17:00,73.9,73.3,29.70,South,180,3.7,-999.0,98,-99.99,,,0.00,Acu-Link.com,2013-08-31 04:17:00,
2013-08-31 00:32:00,73.8,73.2,29.69,SSW,202,2.7,-999.0,98,-99.99,,,0.00,Acu-Link.com,2013-08-31 04:32:00,
2013-08-31 00:47:00,73.6,73.0,29.70,South,180,2.7,-999.0,98,-99.99,,,0.00,Acu-Link.com,2013-08-31 04:47:00,
2013-08-31 01:02:00,73.2,72.6,29.71,South,180,2.2,-999.0,98,-99.99,,,0.00,Acu-Link.com,2013-08-31 05:02:00,
2013-08-31 01:17:00,72.9,72.3,29.70,SSW,202,2.7,-999.0,98,-99.99,,,0.00,Acu-Link.com,2013-08-31 05:17:00,
2013-08-31 01:32:00,72.5,71.9,29.70,South,180,3.2,-999.0,98,-99.99,,,0.00,Acu-Link.com,2013-08-31 05:32:00,
2013-08-31 01:47:00,72.3,71.7,29.70,SSW,202,4.2,-999.0,98,-99.99,,,0.00,Acu-Link.com,2013-08-31 05:47:00,
2013-08-31 02:02:00,72.1,71.5,29.70,West,270,1.7,-999.0,98,-99.99,,,0.00,Acu-Link.com,2013-08-31 06:02:00,
2013-08-31 02:17:00,71.8,71.2,29.70,SW,225,1.1,-999.0,98,-99.99,,,0.00,Acu-Link.com,2013-08-31 06:17:00,
2013-08-31 02:33:00,71.8,71.2,29.70,West,270,1.7,-999.0,98,-99.99,,,0.00,Acu-Link.com,2013-08-31 06:33:00,
2013-08-31 02:48:00,72.1,71.5,29.69,South,180,1.7,-999.0,98,-99.99,,,0.00,Acu-Link.com,2013-08-31 06:48:00,
2013-08-31 03:03:00,72.0,71.4,29.70,SSW,202,2.2,-999.0,98,-99.99,,,0.00,Acu-Link.com,2013-08-31 07:03:00,
2013-08-31 03:18:00,71.8,71.2,29.69,SSW,202,2.2,-999.0,98,-99.99,,,0.00,Acu-Link.com,2013-08-31 07:18:00,
2013-08-31 03:33:00,71.8,71.2,29.68,SW,225,4.7,-999.0,98,-99.99,,,0.00,Acu-Link.com,2013-08-31 07:33:00,
2013-08-31 03:48:00,71.6,71.0,29.67,WSW,247,5.3,-999.0,98,-99.99,,,0.00,Acu-Link.com,2013-08-31 07:48:00,
2013-08-31 04:04:00,71.4,70.8,29.65,SW,225,2.2,-999.0,98,-99.99,,,0.00,Acu-Link.com,2013-08-31 08:04:00,
2013-08-31 04:19:00,71.4,70.8,29.66,WSW,247,2.7,-999.0,98,-99.99,,,0.00,Acu-Link.com,2013-08-31 08:19:00,
2013-08-31 04:35:00,71.8,71.2,29.67,South,180,2.2,-999.0,98,-99.99,,,0.00,Acu-Link.com,2013-08-31 08:35:00,
2013-08-31 04:50:00,71.6,71.0,29.67,South,180,2.7,-999.0,98,-99.99,,,0.00,Acu-Link.com,2013-08-31 08:50:00,
2013-08-31 05:05:00,70.9,70.3,29.71,ENE,67,3.2,-999.0,98,-99.99,,,0.00,Acu-Link.com,2013-08-31 09:05:00,
2013-08-31 05:20:00,71.1,70.5,29.73,ENE,67,3.7,-999.0,98,-99.99,,,0.01,Acu-Link.com,2013-08-31 09:20:00,
2013-08-31 05:35:00,68.9,68.3,29.72,West,270,2.7,-999.0,98,-99.99,,,0.07,Acu-Link.com,2013-08-31 09:35:00,
2013-08-31 05:50:00,68.5,67.9,29.69,SSW,202,1.7,-999.0,98,-99.99,,,0.07,Acu-Link.com,2013-08-31 09:50:00,
2013-08-31 06:05:00,68.4,67.8,29.69,SSW,202,4.7,-999.0,98,-99.99,,,0.08,Acu-Link.com,2013-08-31 10:05:00,
2013-08-31 06:20:00,68.2,67.6,29.67,SSW,202,5.3,-999.0,98,-99.99,,,0.08,Acu-Link.com,2013-08-31 10:20:00,
2013-08-31 06:36:00,68.2,67.6,29.66,South,180,1.1,-999.0,98,-99.99,,,0.08,Acu-Link.com,2013-08-31 10:36:00,
2013-08-31 06:51:00,68.7,68.1,29.69,South,180,1.7,-999.0,98,-99.99,,,0.08,Acu-Link.com,2013-08-31 10:51:00,
2013-08-31 07:06:00,68.9,68.3,29.70,SSE,157,2.2,-999.0,98,-99.99,,,0.08,Acu-Link.com,2013-08-31 11:06:00,
2013-08-31 07:21:00,69.3,68.7,29.71,South,180,3.7,-999.0,98,-99.99,,,0.08,Acu-Link.com,2013-08-31 11:21:00,
2013-08-31 07:36:00,69.6,69.0,29.70,SSW,202,4.2,-999.0,98,-99.99,,,0.08,Acu-Link.com,2013-08-31 11:36:00,
2013-08-31 07:51:00,69.8,69.2,29.71,SSW,202,2.7,-999.0,98,-99.99,,,0.08,Acu-Link.com,2013-08-31 11:51:00,
2013-08-31 08:06:00,72.0,71.4,29.71,West,270,2.2,-999.0,98,-99.99,,,0.08,Acu-Link.com,2013-08-31 12:06:00,
2013-08-31 08:21:00,70.0,69.4,29.72,WSW,247,2.2,-999.0,98,-99.99,,,0.08,Acu-Link.com,2013-08-31 12:21:00,
2013-08-31 08:36:00,70.2,69.6,29.72,South,180,2.2,-999.0,98,-99.99,,,0.08,Acu-Link.com,2013-08-31 12:36:00,
2013-08-31 08:52:00,71.8,71.2,29.72,South,180,3.2,-999.0,98,-99.99,,,0.08,Acu-Link.com,2013-08-31 12:52:00,
2013-08-31 09:07:00,71.2,70.6,29.72,SSW,202,5.8,-999.0,98,-99.99,,,0.08,Acu-Link.com,2013-08-31 13:07:00,
2013-08-31 09:22:00,72.3,71.7,29.72,SW,225,3.7,-999.0,98,-99.99,,,0.08,Acu-Link.com,2013-08-31 13:22:00,
2013-08-31 09:37:00,74.3,73.7,29.72,WSW,247,3.7,-999.0,98,-99.99,,,0.08,Acu-Link.com,2013-08-31 13:37:00,
2013-08-31 09:52:00,76.3,75.7,29.71,West,270,4.2,-999.0,98,-99.99,,,0.08,Acu-Link.com,2013-08-31 13:52:00,
2013-08-31 10:07:00,78.1,77.5,29.72,SSW,202,3.7,-999.0,98,-99.99,,,0.08,Acu-Link.com,2013-08-31 14:07:00,
2013-08-31 10:22:00,78.8,78.2,29.72,SSW,202,4.2,-999.0,98,-99.99,,,0.08,Acu-Link.com,2013-08-31 14:22:00,
2013-08-31 10:38:00,79.3,78.7,29.72,SW,225,5.8,-999.0,98,-99.99,,,0.08,Acu-Link.com,2013-08-31 14:38:00,
2013-08-31 10:53:00,81.3,80.7,29.72,SSW,202,7.3,-999.0,98,-99.99,,,0.08,Acu-Link.com,2013-08-31 14:53:00,
2013-08-31 11:08:00,79.9,79.3,29.72,West,270,5.8,-999.0,98,-99.99,,,0.08,Acu-Link.com,2013-08-31 15:08:00,
2013-08-31 11:23:00,81.5,80.9,29.73,WSW,247,4.7,-999.0,98,-99.99,,,0.08,Acu-Link.com,2013-08-31 15:23:00,
2013-08-31 11:38:00,82.6,82.0,29.73,WNW,292,5.3,-999.0,98,-99.99,,,0.08,Acu-Link.com,2013-08-31 15:38:00,
2013-08-31 11:53:00,82.9,82.3,29.72,SW,225,7.8,-999.0,98,-99.99,,,0.08,Acu-Link.com,2013-08-31 15:53:00,
2013-08-31 12:08:00,84.0,83.4,29.73,NW,315,5.3,-999.0,98,-99.99,,,0.08,Acu-Link.com,2013-08-31 16:08:00,
2013-08-31 12:23:00,84.4,83.8,29.72,ESE,112,2.7,-999.0,98,-99.99,,,0.08,Acu-Link.com,2013-08-31 16:23:00,
2013-08-31 12:38:00,84.7,84.1,29.71,WSW,247,4.7,-999.0,98,-99.99,,,0.08,Acu-Link.com,2013-08-31 16:38:00,
2013-08-31 12:54:00,84.4,83.8,29.70,WSW,247,8.3,-999.0,98,-99.99,,,0.08,Acu-Link.com,2013-08-31 16:54:00,
2013-08-31 13:09:00,84.7,84.1,29.70,West,270,5.8,-999.0,98,-99.99,,,0.08,Acu-Link.com,2013-08-31 17:09:00,
2013-08-31 13:24:00,85.3,84.7,29.70,SSW,202,6.8,-999.0,98,-99.99,,,0.08,Acu-Link.com,2013-08-31 17:24:00,
2013-08-31 13:39:00,86.4,85.8,29.69,West,270,6.8,-999.0,98,-99.99,,,0.08,Acu-Link.com,2013-08-31 17:39:00,
2013-08-31 13:54:00,86.7,86.1,29.70,SW,225,5.3,-999.0,98,-99.99,,,0.08,Acu-Link.com,2013-08-31 17:54:00,
2013-08-31 14:09:00,86.0,85.4,29.69,SSE,157,3.7,-999.0,98,-99.99,,,0.08,Acu-Link.com,2013-08-31 18:09:00,
2013-08-31 14:24:00,86.7,86.1,29.70,WSW,247,8.9,-999.0,98,-99.99,,,0.08,Acu-Link.com,2013-08-31 18:24:00,
2013-08-31 14:39:00,86.0,85.4,29.70,SSW,202,5.8,-999.0,98,-99.99,,,0.08,Acu-Link.com,2013-08-31 18:39:00,
2013-08-31 14:54:00,85.3,84.7,29.69,West,270,6.8,-999.0,98,-99.99,,,0.08,Acu-Link.com,2013-08-31 18:54:00,
2013-08-31 15:10:00,86.7,86.1,29.68,WSW,247,7.3,-999.0,98,-99.99,,,0.08,Acu-Link.com,2013-08-31 19:10:00,
2013-08-31 15:25:00,87.1,86.5,29.67,WSW,247,6.8,-999.0,98,-99.99,,,0.08,Acu-Link.com,2013-08-31 19:25:00,
2013-08-31 15:40:00,86.4,85.8,29.67,SW,225,9.9,-999.0,98,-99.99,,,0.08,Acu-Link.com,2013-08-31 19:40:00,
2013-08-31 15:55:00,85.6,85.0,29.67,SSW,202,3.7,-999.0,98,-99.99,,,0.08,Acu-Link.com,2013-08-31 19:55:00,
2013-08-31 16:10:00,85.3,84.7,29.67,SW,225,3.7,-999.0,98,-99.99,,,0.08,Acu-Link.com,2013-08-31 20:10:00,
2013-08-31 16:25:00,84.4,83.8,29.66,West,270,10.4,-999.0,98,-99.99,,,0.08,Acu-Link.com,2013-08-31 20:25:00,
2013-08-31 16:41:00,84.9,84.3,29.67,West,270,6.8,-999.0,98,-99.99,,,0.08,Acu-Link.com,2013-08-31 20:41:00,
2013-08-31 16:56:00,85.3,84.7,29.66,WSW,247,3.7,-999.0,98,-99.99,,,0.08,Acu-Link.com,2013-08-31 20:56:00,
2013-08-31 17:11:00,85.8,85.2,29.66,WSW,247,4.7,-999.0,98,-99.99,,,0.08,Acu-Link.com,2013-08-31 21:11:00,
2013-08-31 17:26:00,85.3,84.7,29.64,SSW,202,4.7,-999.0,98,-99.99,,,0.08,Acu-Link.com,2013-08-31 21:26:00,
2013-08-31 17:41:00,84.9,84.3,29.64,West,270,5.8,-999.0,98,-99.99,,,0.08,Acu-Link.com,2013-08-31 21:41:00,
2013-08-31 17:56:00,83.7,83.1,29.65,SW,225,4.2,-999.0,98,-99.99,,,0.08,Acu-Link.com,2013-08-31 21:56:00,
2013-08-31 18:11:00,83.5,82.9,29.65,South,180,3.2,-999.0,98,-99.99,,,0.08,Acu-Link.com,2013-08-31 22:11:00,
2013-08-31 18:26:00,82.8,82.2,29.65,SSW,202,5.3,-999.0,98,-99.99,,,0.08,Acu-Link.com,2013-08-31 22:26:00,
2013-08-31 18:41:00,82.2,81.6,29.67,WSW,247,3.7,-999.0,98,-99.99,,,0.08,Acu-Link.com,2013-08-31 22:41:00,
2013-08-31 18:57:00,81.3,80.7,29.66,SW,225,2.7,-999.0,98,-99.99,,,0.08,Acu-Link.com,2013-08-31 22:57:00,
2013-08-31 19:12:00,80.8,80.2,29.67,WSW,247,6.8,-999.0,98,-99.99,,,0.08,Acu-Link.com,2013-08-31 23:12:00,
2013-08-31 19:27:00,79.3,78.7,29.67,NNW,337,7.3,-999.0,98,-99.99,,,0.08,Acu-Link.com,2013-08-31 23:27:00,
2013-08-31 19:42:00,72.3,71.7,29.68,SSW,202,3.2,-999.0,98,-99.99,,,0.33,Acu-Link.com,2013-08-31 23:42:00,
2013-08-31 19:57:00,72.0,71.4,29.68,ENE,67,0.0,-999.0,98,-99.99,,,0.40,Acu-Link.com,2013-08-31 23:57:00,
2013-08-31 20:12:00,71.8,71.2,29.68,South,180,2.2,-999.0,98,-99.99,,,0.41,Acu-Link.com,2013-09-01 00:12:00,
2013-08-31 20:27:00,71.8,71.2,29.68,North,0,2.2,-999.0,98,-99.99,,,0.41,Acu-Link.com,2013-09-01 00:27:00,
2013-08-31 20:42:00,71.8,71.2,29.68,NNE,22,0.0,-999.0,98,-99.99,,,0.41,Acu-Link.com,2013-09-01 00:42:00,
2013-08-31 20:57:00,71.8,71.2,29.68,ESE,112,1.7,-999.0,98,-99.99,,,0.41,Acu-Link.com,2013-09-01 00:57:00,
2013-08-31 21:13:00,72.0,71.4,29.68,South,180,1.1,-999.0,98,-99.99,,,0.41,Acu-Link.com,2013-09-01 01:13:00,
2013-08-31 21:28:00,72.3,71.7,29.68,SSW,202,2.2,-999.0,98,-99.99,,,0.41,Acu-Link.com,2013-09-01 01:28:00,
2013-08-31 21:43:00,72.7,72.1,29.68,SW,225,2.7,-999.0,98,-99.99,,,0.41,Acu-Link.com,2013-09-01 01:43:00,
2013-08-31 21:58:00,72.7,72.1,29.67,NNW,337,1.1,-999.0,98,-99.99,,,0.41,Acu-Link.com,2013-09-01 01:58:00,
2013-08-31 22:13:00,72.1,71.5,29.68,WNW,292,1.1,-999.0,98,-99.99,,,0.41,Acu-Link.com,2013-09-01 02:13:00,
2013-08-31 22:28:00,72.1,71.5,29.69,SE,135,2.2,-999.0,98,-99.99,,,0.41,Acu-Link.com,2013-09-01 02:28:00,
2013-08-31 22:43:00,72.1,71.5,29.68,East,90,1.7,-999.0,98,-99.99,,,0.41,Acu-Link.com,2013-09-01 02:43:00,
2013-08-31 22:58:00,72.1,71.5,29.68,NE,45,1.1,-999.0,98,-99.99,,,0.41,Acu-Link.com,2013-09-01 02:58:00,
2013-08-31 23:13:00,72.3,71.7,29.68,SE,135,0.0,-999.0,98,-99.99,,,0.41,Acu-Link.com,2013-09-01 03:13:00,
2013-08-31 23:29:00,72.1,71.5,29.68,SW,225,0.0,-999.0,98,-99.99,,,0.41,Acu-Link.com,2013-09-01 03:29:00,
2013-08-31 23:44:00,72.5,71.9,29.69,WNW,292,0.0,-999.0,98,-99.99,,,0.41,Acu-Link.com,2013-09-01 03:44:00,
2013-08-31 23:59:00,72.1,71.5,29.68,WNW,292,0.0,-999.0,98,-99.99,,,0.41,Acu-Link.com,2013-09-01 03:59:00,